Time;durP1;ratioP1;P1;durP2;ratioP2;P2;SDS_P1;SDS_P2;PMS_P1;PMS_P2;Temp;Humidity;BMP_temperature;BMP_pressure;BME280_temperature;BME280_humidity;BME280_pressure;Samples;Min_cycle;Max_cycle;Signal;HPM_P1;HPM_P2
2023/03/08 00:01:21;;;;;;;14.82;6.07;;;;;;;-0.93;100.00;99950.56;4991227;28;20044;-57
2023/03/08 00:03:51;;;;;;;7.65;5.90;;;;;;;-0.83;100.00;99963.50;5006788;28;20538;-58
2023/03/08 00:06:16;;;;;;;13.90;5.65;;;;;;;-1.18;100.00;99911.00;4995415;28;20121;-57
2023/03/08 00:08:42;;;;;;;8.45;5.70;;;;;;;-1.27;100.00;99914.44;4994340;28;20129;-58
2023/03/08 00:11:09;;;;;;;12.32;6.85;;;;;;;-1.10;100.00;99957.47;4995468;28;20117;-57
2023/03/08 00:13:35;;;;;;;13.45;5.88;;;;;;;-1.19;100.00;99953.16;4994078;28;20434;-58
2023/03/08 00:16:01;;;;;;;8.80;5.90;;;;;;;-1.59;100.00;99895.47;4995260;28;20080;-57
2023/03/08 00:18:26;;;;;;;9.07;5.95;;;;;;;-1.33;100.00;99948.00;5002228;28;20121;-59
2023/03/08 00:21:04;;;;;;;17.38;5.95;;;;;;;-1.34;100.00;99958.28;5014930;28;20112;-59
2023/03/08 00:23:29;;;;;;;11.52;5.82;;;;;;;-1.38;100.00;99969.50;5014977;28;20069;-58
2023/03/08 00:25:54;;;;;;;9.07;6.18;;;;;;;-2.00;100.00;99855.84;5014768;28;20069;-59
2023/03/08 00:28:20;;;;;;;7.25;5.65;;;;;;;-1.89;100.00;99888.53;5014516;28;20052;-59
2023/03/08 00:30:49;;;;;;;15.40;5.35;;;;;;;-1.49;100.00;99968.63;5013493;28;20084;-59
2023/03/08 00:33:14;;;;;;;8.70;5.65;;;;;;;-1.61;100.00;99937.63;5030076;28;20129;-58
2023/03/08 00:35:39;;;;;;;8.88;5.60;;;;;;;-1.56;100.00;99944.50;5010878;28;20557;-58
2023/03/08 00:38:04;;;;;;;9.23;6.30;;;;;;;-1.56;100.00;99951.38;5014556;28;20033;-59
2023/03/08 00:40:30;;;;;;;13.20;5.60;;;;;;;-1.71;100.00;99916.97;5014361;28;20045;-58
2023/03/08 00:42:55;;;;;;;14.73;5.53;;;;;;;-1.66;100.00;99918.69;5014385;28;20034;-58
2023/03/08 00:45:20;;;;;;;13.75;6.47;;;;;;;-2.06;100.00;99855.81;5014759;28;20034;-58
2023/03/08 00:47:46;;;;;;;9.30;5.93;;;;;;;-2.05;100.00;99854.97;5014546;28;20040;-58
2023/03/08 00:50:11;;;;;;;7.38;5.15;;;;;;;-1.61;100.00;99919.56;5014015;28;20462;-58
2023/03/08 00:52:36;;;;;;;11.38;6.40;;;;;;;-2.09;100.00;99838.63;5004941;28;20052;-58
2023/03/08 00:55:02;;;;;;;10.80;5.63;;;;;;;-1.64;100.00;99916.97;4994772;28;20446;-58
2023/03/08 00:57:27;;;;;;;8.68;5.57;;;;;;;-2.08;100.00;99848.09;4994702;28;20490;-58
2023/03/08 00:59:53;;;;;;;7.00;5.45;;;;;;;-1.69;100.00;99916.13;5009525;28;20474;-58
2023/03/08 01:02:18;;;;;;;7.60;5.47;;;;;;;-1.70;100.00;99928.16;4994784;28;20030;-59
2023/03/08 01:04:43;;;;;;;9.05;6.00;;;;;;;-1.73;100.00;99910.94;4993331;28;20431;-59
2023/03/08 01:07:08;;;;;;;10.15;5.78;;;;;;;-1.70;100.00;99910.09;4994386;28;20409;-58
2023/03/08 01:09:34;;;;;;;9.32;5.88;;;;;;;-1.65;100.00;99907.50;4994212;28;20042;-59
2023/03/08 01:11:59;;;;;;;6.68;5.60;;;;;;;-1.63;100.00;99910.97;4994512;28;20030;-59
2023/03/08 01:14:24;;;;;;;9.00;5.72;;;;;;;-1.59;100.00;99908.38;4994312;28;20030;-58
2023/03/08 01:16:50;;;;;;;11.30;5.82;;;;;;;-1.97;100.00;99823.19;4993775;28;20449;-58
2023/03/08 01:19:15;;;;;;;11.23;5.57;;;;;;;-1.43;100.00;99894.63;4994295;28;20073;-58
2023/03/08 01:21:40;;;;;;;8.73;5.25;;;;;;;-1.38;100.00;99877.44;4976173;28;20065;-58
2023/03/08 01:24:06;;;;;;;6.60;4.32;;;;;;;-1.32;100.00;99874.00;4993464;28;20030;-60
2023/03/08 01:26:31;;;;;;;8.65;4.43;;;;;;;-1.43;100.00;99811.19;4993339;28;20038;-59
2023/03/08 01:28:57;;;;;;;9.73;4.72;;;;;;;-0.82;100.00;99884.28;4994034;28;20064;-59
2023/03/08 01:31:29;;;;;;;10.93;4.45;;;;;;;-1.01;100.00;99825.75;4993765;28;20474;-59
2023/03/08 01:33:55;;;;;;;7.05;4.53;;;;;;;-0.48;100.00;99879.88;4993908;28;20096;-59
2023/03/08 01:36:23;;;;;;;8.18;3.30;;;;;;;-0.86;100.00;99787.84;4993935;28;20438;-59
2023/03/08 01:38:49;;;;;;;5.78;1.70;;;;;;;-0.78;100.00;99786.06;4993928;28;20093;-59
2023/03/08 01:41:26;;;;;;;3.72;1.15;;;;;;;-0.54;100.00;99795.47;4997166;28;20026;-60
2023/03/08 01:43:52;;;;;;;1.50;1.10;;;;;;;0.04;100.00;99867.56;5013130;28;20289;-59
2023/03/08 01:46:19;;;;;;;3.80;0.80;;;;;;;0.15;100.00;99853.69;5013446;28;20058;-58
2023/03/08 01:48:50;;;;;;;12.43;2.45;;;;;;;-0.19;100.00;99777.19;5013404;28;20065;-59
2023/03/08 01:51:16;;;;;;;;;;;;;;;-0.08;100.00;99776.22;4995880;28;20033;-59
2023/03/08 01:53:42;;;;;;;3.70;0.60;;;;;;;-0.13;100.00;99770.25;5013080;28;20288;-59
2023/03/08 01:56:11;;;;;;;4.43;1.02;;;;;;;-0.08;100.00;99771.06;5008675;28;20076;-58
2023/03/08 01:58:38;;;;;;;1.55;0.80;;;;;;;0.30;100.00;99847.56;4993667;28;20057;-58
2023/03/08 02:01:04;;;;;;;6.90;1.08;;;;;;;0.30;100.00;99844.97;4993570;28;20031;-58
2023/03/08 02:03:29;;;;;;;2.10;0.77;;;;;;;-0.20;100.00;99762.50;4993272;28;20101;-58
2023/03/08 02:05:55;;;;;;;2.85;0.85;;;;;;;-0.21;100.00;99755.66;4993444;28;20039;-58
2023/03/08 02:08:21;;;;;;;4.45;0.90;;;;;;;-0.30;100.00;99743.63;4992100;28;20414;-58
2023/03/08 02:10:46;;;;;;;2.35;1.42;;;;;;;0.06;100.00;99824.47;4993014;28;20129;-57
2023/03/08 02:13:11;;;;;;;2.45;1.20;;;;;;;-0.02;100.00;99824.47;4998380;28;20433;-58
2023/03/08 02:15:37;;;;;;;3.97;1.17;;;;;;;-0.46;100.00;99762.66;5012848;28;20041;-59
2023/03/08 02:18:02;;;;;;;2.78;1.20;;;;;;;-0.22;100.00;99811.66;5011566;28;20100;-58
2023/03/08 02:20:31;;;;;;;4.97;1.33;;;;;;;-0.72;100.00;99731.78;5012792;28;20053;-58
2023/03/08 02:23:11;;;;;;;2.72;0.93;;;;;;;-0.48;100.00;99799.72;5012718;28;20026;-59
2023/03/08 02:25:37;;;;;;;4.47;1.38;;;;;;;-0.45;100.00;99813.50;5012355;28;20552;-58
2023/03/08 02:28:03;;;;;;;3.17;1.38;;;;;;;-0.54;100.00;99807.50;5009992;28;20061;-58
2023/03/08 02:30:31;;;;;;;3.35;1.85;;;;;;;-0.58;100.00;99794.59;5012633;28;20030;-59
2023/03/08 02:32:57;;;;;;;6.85;3.38;;;;;;;-0.59;100.00;99804.97;5012766;28;20111;-59
2023/03/08 02:35:22;;;;;;;6.35;4.18;;;;;;;-1.15;100.00;99714.75;5011108;28;20057;-59
2023/03/08 02:37:47;;;;;;;7.65;4.63;;;;;;;-0.70;100.00;99799.81;5010960;28;20037;-58
2023/03/08 02:40:13;;;;;;;6.78;4.88;;;;;;;-0.89;100.00;99774.06;5012099;28;20042;-60
2023/03/08 02:42:39;;;;;;;6.55;4.93;;;;;;;-1.37;100.00;99702.78;5012300;28;20096;-58
2023/03/08 02:45:05;;;;;;;10.85;6.18;;;;;;;-1.44;100.00;99706.22;5011275;28;20029;-59
2023/03/08 02:47:30;;;;;;;7.30;6.25;;;;;;;-1.20;100.00;99768.97;4991467;28;20129;-59
2023/03/08 02:49:56;;;;;;;6.68;5.80;;;;;;;-1.11;100.00;99793.06;4992559;28;20133;-63
2023/03/08 02:52:21;;;;;;;7.95;7.10;;;;;;;-1.15;100.00;99795.66;4992621;28;20038;-59
2023/03/08 02:54:46;;;;;;;8.50;6.25;;;;;;;-1.65;100.00;99721.75;4991995;28;20455;-58
2023/03/08 02:57:12;;;;;;;9.20;6.18;;;;;;;-1.24;100.00;99818.91;4992366;28;20034;-59
2023/03/08 02:59:37;;;;;;;9.52;6.75;;;;;;;-1.34;100.00;99780.19;4992092;28;20042;-59
2023/03/08 03:02:02;;;;;;;11.10;6.10;;;;;;;-1.72;100.00;99716.59;4992656;28;20050;-57
2023/03/08 03:04:32;;;;;;;13.02;6.65;;;;;;;-1.27;100.00;99785.34;4991014;28;20470;-59
2023/03/08 03:06:58;;;;;;;10.32;7.15;;;;;;;-1.64;100.00;99729.50;4990640;28;20038;-61
2023/03/08 03:09:23;;;;;;;8.10;6.00;;;;;;;-1.25;100.00;99783.63;4990694;28;20030;-59
2023/03/08 03:11:48;;;;;;;13.40;6.35;;;;;;;-1.27;100.00;99767.28;4992461;28;20081;-59
2023/03/08 03:14:14;;;;;;;10.35;7.00;;;;;;;-1.26;100.00;99769.00;4990659;28;20038;-58
2023/03/08 03:16:39;;;;;;;10.45;6.75;;;;;;;-1.28;100.00;99751.78;4991786;28;20092;-59
2023/03/08 03:19:04;;;;;;;12.20;7.38;;;;;;;-1.32;100.00;99750.94;4990606;28;20071;-58
2023/03/08 03:21:30;;;;;;;11.13;7.10;;;;;;;-1.84;100.00;99665.00;5024208;28;20066;-59
2023/03/08 03:23:55;;;;;;;9.18;5.88;;;;;;;-1.80;100.00;99661.56;5011513;28;20038;-59
2023/03/08 03:26:22;;;;;;;8.65;6.95;;;;;;;-1.69;100.00;99682.19;5011984;28;20076;-59
2023/03/08 03:28:48;;;;;;;10.60;7.57;;;;;;;-1.79;100.00;99667.59;5026632;28;20057;-58
2023/03/08 03:31:16;;;;;;;12.15;7.30;;;;;;;-1.47;100.00;99721.72;5011244;28;20466;-58
2023/03/08 03:33:42;;;;;;;9.73;7.25;;;;;;;-1.43;100.00;99716.53;5011720;28;20034;-59
2023/03/08 03:36:10;;;;;;;9.38;6.82;;;;;;;-1.78;100.00;99635.78;5009293;28;20045;-59
2023/03/08 03:38:36;;;;;;;11.02;7.38;;;;;;;-1.34;100.00;99724.25;5011571;28;20042;-59
2023/03/08 03:41:06;;;;;;;8.23;6.68;;;;;;;-1.82;100.00;99623.75;5014122;28;20382;-59
2023/03/08 03:43:32;;;;;;;7.50;6.70;;;;;;;-1.38;100.00;99717.41;5015594;28;20038;-59
2023/03/08 03:45:58;;;;;;;11.05;6.13;;;;;;;-1.32;100.00;99716.53;5016029;28;20477;-59
2023/03/08 03:48:23;;;;;;;9.60;7.07;;;;;;;-1.47;100.00;99683.88;5015520;28;20422;-59
2023/03/08 03:51:08;;;;;;;7.60;6.68;;;;;;;-1.38;100.00;99690.72;5015315;28;20046;-59
2023/03/08 03:53:34;;;;;;;15.70;8.45;;;;;;;-1.28;100.00;99715.63;5004423;28;20034;-58
2023/03/08 03:56:21;;;;;;;12.00;6.97;;;;;;;-1.31;100.00;99718.22;4995721;28;20101;-58
2023/03/08 03:58:46;;;;;;;14.02;6.45;;;;;;;-1.89;100.00;99622.91;4995653;28;20034;-59
2023/03/08 04:01:20;;;;;;;9.63;7.07;;;;;;;-2.01;100.00;99612.59;4995457;28;20042;-59
2023/03/08 04:03:47;;;;;;;9.40;7.82;;;;;;;-1.37;100.00;99721.69;4995656;28;20274;-59
2023/03/08 04:06:16;;;;;;;13.05;7.88;;;;;;;-1.71;100.00;99635.75;4994603;28;20477;-59
2023/03/08 04:08:42;;;;;;;10.35;7.28;;;;;;;-1.62;100.00;99649.50;4995818;28;20041;-59
2023/03/08 04:11:15;;;;;;;11.90;7.93;;;;;;;-1.36;100.00;99710.50;4995270;28;20062;-59
2023/03/08 04:13:41;;;;;;;10.98;7.63;;;;;;;-1.35;100.00;99685.56;4995354;28;20401;-58
2023/03/08 04:16:17;;;;;;;12.40;7.93;;;;;;;-1.32;100.00;99704.47;4993913;28;20145;-58
2023/03/08 04:18:42;;;;;;;14.05;8.30;;;;;;;-1.76;100.00;99616.88;5010316;28;20474;-60
2023/03/08 04:21:08;;;;;;;14.48;8.80;;;;;;;-1.32;100.00;99680.38;5010563;28;20049;-59
2023/03/08 04:23:34;;;;;;;14.50;9.25;;;;;;;-1.33;100.00;99673.50;4995668;28;20034;-58
2023/03/08 04:26:00;;;;;;;11.38;8.32;;;;;;;-1.93;100.00;99576.50;4995199;28;20083;-61
2023/03/08 04:28:25;;;;;;;13.70;9.68;;;;;;;-1.35;100.00;99672.66;4994012;28;20038;-60
2023/03/08 04:30:51;;;;;;;14.15;10.25;;;;;;;-1.84;100.00;99585.03;4995635;28;20038;-60
2023/03/08 04:33:16;;;;;;;20.02;12.32;;;;;;;-1.39;100.00;99664.06;4995291;28;20489;-59
2023/03/08 04:35:41;;;;;;;24.98;14.25;;;;;;;-1.33;100.00;99665.75;4995184;28;20061;-59
2023/03/08 04:38:07;;;;;;;20.20;14.50;;;;;;;-1.33;100.00;99656.28;4995189;28;20108;-60
2023/03/08 04:41:00;;;;;;;21.67;15.25;;;;;;;-1.29;100.00;99662.31;4995054;28;20078;-60
2023/03/08 04:43:17;;;;;;;21.15;15.23;;;;;;;-1.26;100.00;99659.72;4994585;28;20065;-59
2023/03/08 04:45:43;;;;;;;23.27;16.80;;;;;;;-1.25;100.00;99656.25;4994998;28;20050;-59
2023/03/08 04:48:08;;;;;;;29.15;19.08;;;;;;;-1.22;100.00;99653.66;4994969;28;20039;-59
2023/03/08 04:50:33;;;;;;;31.30;20.25;;;;;;;-1.58;100.00;99579.84;4994283;28;20042;-59
2023/03/08 04:52:58;;;;;;;30.38;21.08;;;;;;;-1.12;100.00;99642.44;4994937;28;20089;-59
2023/03/08 04:55:24;;;;;;;36.97;23.02;;;;;;;-1.49;100.00;99568.59;4994665;28;20498;-60
2023/03/08 04:57:49;;;;;;;39.65;25.63;;;;;;;-1.07;100.00;99632.94;4994806;28;20474;-59
2023/03/08 05:00:15;;;;;;;46.10;27.60;;;;;;;-0.97;100.00;99626.00;4994825;28;20026;-60
2023/03/08 05:02:40;;;;;;;43.47;28.58;;;;;;;-1.41;100.00;99526.41;4994398;28;20031;-59
2023/03/08 05:05:06;;;;;;;50.42;29.83;;;;;;;-1.40;100.00;99522.13;4994657;28;20060;-59
2023/03/08 05:07:31;;;;;;;49.53;29.40;;;;;;;-1.35;100.00;99528.09;4993121;28;20510;-59
2023/03/08 05:09:56;;;;;;;52.22;30.42;;;;;;;-0.88;100.00;99589.78;4994298;28;20038;-60
2023/03/08 05:12:21;;;;;;;59.35;32.05;;;;;;;-0.80;100.00;99603.50;4994847;28;20057;-61
2023/03/08 05:14:47;;;;;;;58.72;32.78;;;;;;;-0.85;100.00;99584.63;4994303;28;20038;-60
2023/03/08 05:17:12;;;;;;;61.10;33.97;;;;;;;-0.76;100.00;99590.56;4994367;28;20043;-59
2023/03/08 05:19:37;;;;;;;57.05;32.47;;;;;;;-1.13;100.00;99509.88;5010073;28;20049;-59
2023/03/08 05:22:04;;;;;;;60.15;35.47;;;;;;;-0.75;100.00;99563.00;5013309;28;20058;-59
2023/03/08 05:24:30;;;;;;;66.35;36.00;;;;;;;-0.93;100.00;99514.03;5012215;28;20053;-60
2023/03/08 05:26:56;;;;;;;69.78;36.60;;;;;;;-1.24;100.00;99457.47;5014141;28;20041;-58
2023/03/08 05:29:21;;;;;;;74.85;39.08;;;;;;;-1.16;100.00;99453.09;5013636;28;20392;-59
2023/03/08 05:31:48;;;;;;;79.15;40.22;;;;;;;-0.62;100.00;99531.03;5028750;28;20453;-59
2023/03/08 05:34:14;;;;;;;91.72;39.83;;;;;;;-0.53;100.00;99536.13;5013629;28;20057;-59
2023/03/08 05:36:40;;;;;;;89.95;43.40;;;;;;;-0.55;100.00;99527.50;5011149;28;20470;-59
2023/03/08 05:39:06;;;;;;;87.43;40.70;;;;;;;-0.54;100.00;99528.38;5013293;28;20467;-59
2023/03/08 05:41:31;;;;;;;91.95;44.47;;;;;;;-0.56;100.00;99515.47;5013354;28;20149;-59
2023/03/08 05:43:57;;;;;;;90.38;43.22;;;;;;;-0.46;100.00;99526.56;5013507;28;20069;-59
2023/03/08 05:46:22;;;;;;;98.40;45.35;;;;;;;-0.53;100.00;99504.25;5011937;28;20125;-59
2023/03/08 05:48:48;;;;;;;88.90;43.65;;;;;;;-0.76;100.00;99461.38;5013353;28;20149;-59
2023/03/08 05:51:15;;;;;;;96.28;45.53;;;;;;;-0.85;100.00;99445.13;5013493;28;20030;-59
2023/03/08 05:53:41;;;;;;;95.38;43.92;;;;;;;-0.52;100.00;99498.19;4995725;28;20041;-59
2023/03/08 05:56:15;;;;;;;100.43;46.17;;;;;;;-0.47;100.00;99509.38;4991651;28;20065;-59
2023/03/08 05:58:41;;;;;;;85.40;43.63;;;;;;;-0.47;100.00;99519.72;4991937;28;20114;-59
2023/03/08 06:01:20;;;;;;;99.13;45.30;;;;;;;-0.47;100.00;99509.38;4998950;28;20069;-59
2023/03/08 06:03:47;;;;;;;100.60;45.20;;;;;;;-0.62;100.00;99487.97;5010995;28;20037;-58
2023/03/08 06:06:13;;;;;;;86.60;42.78;;;;;;;-0.46;100.00;99501.59;5027937;28;20030;-59
2023/03/08 06:08:39;;;;;;;98.38;43.92;;;;;;;-0.93;100.00;99418.47;4998994;28;20060;-59
2023/03/08 06:11:04;;;;;;;88.38;43.67;;;;;;;-0.90;100.00;99427.06;5018142;28;20441;-59
2023/03/08 06:13:30;;;;;;;99.00;44.15;;;;;;;-1.83;100.00;99263.53;4993134;28;20035;-58
2023/03/08 06:15:57;;;;;;;107.35;45.55;;;;;;;-0.54;100.00;99487.03;4993565;28;20108;-59
2023/03/08 06:18:23;;;;;;;114.70;48.00;;;;;;;-0.43;100.00;99505.88;4991924;28;20065;-58
2023/03/08 06:20:59;;;;;;;125.82;46.78;;;;;;;-0.82;100.00;99445.94;4991509;28;20045;-58
2023/03/08 06:23:26;;;;;;;99.45;44.10;;;;;;;-0.45;100.00;99505.03;4992974;28;20061;-59
2023/03/08 06:25:51;;;;;;;122.97;46.20;;;;;;;-0.46;100.00;99490.38;5001720;28;20046;-59
2023/03/08 06:28:17;;;;;;;186.68;54.00;;;;;;;-0.47;100.00;99488.69;5027673;28;20034;-58
2023/03/08 06:30:42;;;;;;;150.48;50.85;;;;;;;-0.88;100.00;99416.72;5026799;28;20034;-60
2023/03/08 06:33:07;;;;;;;183.30;53.83;;;;;;;-0.42;100.00;99500.69;5007850;28;20038;-59
2023/03/08 06:35:33;;;;;;;145.75;50.92;;;;;;;-0.37;100.00;99503.22;4992267;28;20042;-59
2023/03/08 06:37:58;;;;;;;230.57;58.42;;;;;;;-0.36;100.00;99499.78;4992643;28;20030;-59
2023/03/08 06:40:23;;;;;;;132.25;51.70;;;;;;;-0.80;100.00;99423.53;5004392;28;20046;-58
2023/03/08 06:42:49;;;;;;;239.43;62.10;;;;;;;-0.41;100.00;99483.47;5000933;28;20039;-60
2023/03/08 06:45:14;;;;;;;131.95;54.08;;;;;;;-0.44;100.00;99476.59;4992747;28;20074;-59
2023/03/08 06:47:39;;;;;;;142.73;54.53;;;;;;;-0.30;100.00;99503.16;5004033;28;20049;-59
2023/03/08 06:50:05;;;;;;;189.40;61.97;;;;;;;-0.28;100.00;99492.78;5027512;28;20037;-59
2023/03/08 06:52:36;;;;;;;138.50;55.80;;;;;;;-0.26;100.00;99485.88;5002316;28;20038;-59
2023/03/08 06:55:05;;;;;;;149.50;57.35;;;;;;;-0.23;100.00;99488.44;4992536;28;20032;-59
2023/03/08 06:57:30;;;;;;;131.60;55.92;;;;;;;-0.29;100.00;99471.25;4991236;28;20100;-59
2023/03/08 06:59:55;;;;;;;152.43;57.08;;;;;;;-0.35;100.00;99454.97;4992112;28;20437;-60
2023/03/08 07:02:21;;;;;;;148.13;55.42;;;;;;;-0.23;100.00;99484.13;4992187;28;20045;-59
2023/03/08 07:04:46;;;;;;;162.05;58.20;;;;;;;-0.16;100.00;99482.34;4992169;28;20034;-59
2023/03/08 07:07:11;;;;;;;126.38;55.47;;;;;;;-0.64;100.00;99388.91;4995169;28;20065;-60
2023/03/08 07:09:37;;;;;;;139.65;57.30;;;;;;;-0.54;100.00;99392.25;5011963;28;20489;-60
2023/03/08 07:12:02;;;;;;;139.70;57.88;;;;;;;-0.10;100.00;99459.84;5012002;28;20041;-59
2023/03/08 07:14:27;;;;;;;123.90;57.40;;;;;;;-0.02;100.00;99464.91;5007711;28;20073;-59
2023/03/08 07:16:53;;;;;;;136.13;58.60;;;;;;;0.03;100.00;99475.22;5008423;28;20136;-59
2023/03/08 07:19:18;;;;;;;130.82;56.63;;;;;;;0.00;100.00;99463.19;5011765;28;20116;-59
2023/03/08 07:21:43;;;;;;;132.27;59.85;;;;;;;0.03;100.00;99477.81;5006587;28;20129;-60
2023/03/08 07:24:12;;;;;;;141.95;57.28;;;;;;;-0.31;100.00;99404.91;5011815;28;20033;-59
2023/03/08 07:26:37;;;;;;;128.65;57.58;;;;;;;0.07;100.00;99470.00;5008863;28;20038;-59
2023/03/08 07:29:02;;;;;;;128.15;59.97;;;;;;;0.05;100.00;99445.88;5011818;28;20034;-59
2023/03/08 07:31:28;;;;;;;117.53;57.08;;;;;;;0.16;100.00;99456.94;4994197;28;20034;-60
2023/03/08 07:33:56;;;;;;;123.82;58.58;;;;;;;0.16;100.00;99440.56;4993880;28;20038;-58
2023/03/08 07:36:21;;;;;;;115.55;57.58;;;;;;;0.30;100.00;99455.03;4991942;28;20061;-59
2023/03/08 07:38:48;;;;;;;112.13;55.53;;;;;;;0.38;100.00;99460.13;4990984;28;20039;-59
2023/03/08 07:41:13;;;;;;;115.38;57.78;;;;;;;0.29;100.00;99424.00;4992284;28;20096;-59
2023/03/08 07:43:38;;;;;;;111.28;53.60;;;;;;;0.49;100.00;99451.34;4992132;28;20433;-59
2023/03/08 07:46:04;;;;;;;109.88;54.03;;;;;;;0.06;100.00;99372.53;4992044;28;20039;-57
2023/03/08 07:48:30;;;;;;;123.57;55.83;;;;;;;0.15;100.00;99387.09;5022030;28;20378;-57
2023/03/08 07:51:08;;;;;;;113.47;54.70;;;;;;;0.00;100.00;99363.13;4995411;28;20073;-58
2023/03/08 07:53:35;;;;;;;106.07;53.10;;;;;;;0.11;100.00;99369.91;4991997;28;20034;-57
2023/03/08 07:56:00;;;;;;;109.38;55.78;;;;;;;0.00;100.00;99357.97;4990753;28;20034;-58
2023/03/08 07:58:26;;;;;;;114.90;54.70;;;;;;;0.41;100.00;99440.19;4991872;28;20046;-57
2023/03/08 08:00:52;;;;;;;110.82;54.67;;;;;;;0.00;100.00;99363.13;4990461;28;20045;-58
2023/03/08 08:03:18;;;;;;;124.40;59.17;;;;;;;0.39;100.00;99421.25;4974321;28;20408;-57
2023/03/08 08:05:43;;;;;;;113.88;54.00;;;;;;;0.54;100.00;99446.06;4999079;28;20140;-58
2023/03/08 08:08:12;;;;;;;131.63;60.03;;;;;;;0.23;100.00;99369.75;5011432;28;20046;-57
2023/03/08 08:10:38;;;;;;;133.98;59.75;;;;;;;0.65;100.00;99435.56;5009618;28;20049;-58
2023/03/08 08:13:03;;;;;;;145.38;62.75;;;;;;;0.74;100.00;99427.66;5009359;28;20038;-57
2023/03/08 08:15:29;;;;;;;133.35;58.65;;;;;;;0.33;100.00;99351.47;5010588;28;20034;-58
2023/03/08 08:17:55;;;;;;;133.80;59.47;;;;;;;0.75;100.00;99426.78;5009565;28;20046;-58
2023/03/08 08:20:20;;;;;;;133.02;61.58;;;;;;;0.81;100.00;99422.38;5008492;28;20030;-58
2023/03/08 08:22:46;;;;;;;128.50;57.67;;;;;;;0.82;100.00;99418.88;4998305;28;20050;-58
2023/03/08 08:25:11;;;;;;;120.18;54.97;;;;;;;0.48;100.00;99343.47;4990647;28;20046;-58
2023/03/08 08:27:36;;;;;;;107.25;50.72;;;;;;;0.47;100.00;99344.34;4995096;28;20038;-58
2023/03/08 08:30:03;;;;;;;109.45;52.25;;;;;;;0.74;100.00;99400.03;4995073;28;20034;-58
2023/03/08 08:32:29;;;;;;;103.53;49.90;;;;;;;0.87;100.00;99424.00;4993874;28;20066;-58
2023/03/08 08:34:54;;;;;;;94.80;47.42;;;;;;;0.87;100.00;99434.38;4995499;28;20061;-60
2023/03/08 08:37:19;;;;;;;96.72;48.45;;;;;;;0.74;100.00;99404.34;4994385;28;20050;-57
2023/03/08 08:39:45;;;;;;;90.90;48.58;;;;;;;0.97;100.00;99421.22;5010289;28;20049;-61
2023/03/08 08:42:10;;;;;;;84.72;44.97;;;;;;;1.00;100.00;99405.63;4994116;28;20549;-62
2023/03/08 08:44:35;;;;;;;81.28;44.38;;;;;;;1.03;100.00;99405.59;5001987;28;20092;-61
2023/03/08 08:47:01;;;;;;;77.00;41.88;;;;;;;1.10;100.00;99408.94;5014566;28;20032;-61
2023/03/08 08:49:26;;;;;;;74.35;42.05;;;;;;;1.09;100.00;99425.34;5013121;28;20085;-60
2023/03/08 08:51:52;;;;;;;73.95;42.13;;;;;;;0.80;100.00;99347.25;4993901;28;20138;-60
2023/03/08 08:54:17;;;;;;;67.82;39.17;;;;;;;0.79;100.00;99341.22;4994144;28;20129;-59
2023/03/08 08:56:43;;;;;;;68.20;39.00;;;;;;;1.23;100.00;99394.00;4994726;28;20133;-60
2023/03/08 08:59:10;;;;;;;64.10;37.25;;;;;;;1.33;100.00;99398.16;4994860;28;20045;-60
2023/03/08 09:01:38;;;;;;;58.95;34.55;;;;;;;1.49;100.00;99404.78;4994984;28;20382;-58
2023/03/08 09:04:04;;;;;;;54.13;33.90;;;;;;;1.07;100.00;99319.16;4994750;28;20516;-59
2023/03/08 09:06:30;;;;;;;54.28;32.63;;;;;;;1.57;100.00;99415.88;4994377;28;20035;-55
2023/03/08 09:08:57;;;;;;;50.75;30.13;;;;;;;1.22;100.00;99333.56;4996669;28;20104;-50
2023/03/08 09:11:23;;;;;;;50.17;31.08;;;;;;;1.34;100.00;99322.13;4996765;28;20129;-57
2023/03/08 09:13:49;;;;;;;42.08;29.00;;;;;;;1.37;100.00;99319.47;5010536;28;20470;-56
2023/03/08 09:16:21;;;;;;;42.92;26.63;;;;;;;1.74;100.00;99368.84;5029287;28;20048;-53
2023/03/08 09:18:47;;;;;;;41.25;26.92;;;;;;;1.34;100.00;99312.59;5012096;28;20812;-54
2023/03/08 09:21:13;;;;;;;47.38;28.73;;;;;;;1.78;100.00;99373.94;5024505;28;20046;-56
2023/03/08 09:23:39;;;;;;;46.80;30.10;;;;;;;1.90;100.00;99385.81;5025498;28;20038;-52
2023/03/08 09:26:05;;;;;;;48.00;29.90;;;;;;;1.53;100.00;99308.75;5011472;28;20038;-54
2023/03/08 09:28:31;;;;;;;44.97;29.13;;;;;;;1.61;100.00;99309.44;5010417;28;20484;-53
2023/03/08 09:30:57;;;;;;;41.25;26.33;;;;;;;1.59;100.00;99307.75;5014164;28;20038;-55
2023/03/08 09:33:22;;;;;;;39.55;27.25;;;;;;;1.62;100.00;99290.41;5012071;28;20128;-55
2023/03/08 09:35:55;;;;;;;42.08;28.00;;;;;;;2.28;100.00;99362.47;5004617;28;20137;-52
2023/03/08 09:38:21;;;;;;;38.17;26.98;;;;;;;2.46;100.00;99364.66;4994799;28;20034;-51
2023/03/08 09:41:10;;;;;;;38.08;25.23;;;;;;;2.36;100.00;99298.25;5008528;28;20037;-54
2023/03/08 09:44:14;;;;;;;30.63;20.48;;;;;;;2.92;100.00;99371.38;5012394;28;20040;-53
2023/03/08 09:46:45;;;;;;;28.80;18.88;;;;;;;2.66;100.00;99314.81;5010009;28;20412;-53
2023/03/08 09:49:15;;;;;;;28.00;19.52;;;;;;;2.69;100.00;99307.81;5012182;28;20485;-52
2023/03/08 09:51:43;;;;;;;26.30;18.37;;;;;;;3.07;100.00;99383.97;5012187;28;20030;-53
2023/03/08 09:54:14;;;;;;;24.42;17.40;;;;;;;2.87;100.00;99360.22;5027293;28;20038;-50
2023/03/08 09:56:45;;;;;;;22.27;17.92;;;;;;;2.94;100.00;99382.56;5013047;28;20038;-53
2023/03/08 09:59:22;;;;;;;28.15;20.50;;;;;;;2.98;100.00;99411.03;5009534;28;20029;-54
2023/03/08 10:01:55;;;;;;;26.95;19.85;;;;;;;3.12;100.00;99397.72;5011174;28;20471;-51
2023/03/08 10:04:39;;;;;;;24.23;18.35;;;;;;;2.98;100.00;99371.22;5012644;28;20053;-55
2023/03/08 10:07:16;;;;;;;24.70;17.95;;;;;;;2.92;100.00;99392.16;5011175;28;20026;-51
2023/03/08 10:09:47;;;;;;;25.05;18.80;;;;;;;2.78;100.00;99366.50;5012740;28;20219;-56
2023/03/08 10:12:37;;;;;;;25.05;17.77;;;;;;;2.96;100.00;99375.56;5025848;28;20037;-52
2023/03/08 10:15:14;;;;;;;22.98;16.98;;;;;;;3.09;100.00;99357.06;5012670;28;20454;-55
2023/03/08 10:17:51;;;;;;;24.55;16.98;;;;;;;2.90;100.00;99276.97;5011035;28;20141;-55
2023/03/08 10:20:32;;;;;;;19.27;14.70;;;;;;;3.14;100.00;99287.59;5011195;28;20038;-57
2023/03/08 10:23:00;;;;;;;20.15;15.32;;;;;;;3.87;100.00;99338.41;5011384;28;20046;-56
2023/03/08 10:25:29;;;;;;;23.67;18.23;;;;;;;4.00;100.00;99319.81;4995010;28;20077;-58
2023/03/08 10:27:56;;;;;;;21.48;16.88;;;;;;;3.95;100.00;99336.44;5009404;28;20053;-52
2023/03/08 10:30:34;;;;;;;27.90;19.90;;;;;;;3.69;100.00;99273.88;5011507;28;20042;-51
2023/03/08 10:33:04;;;;;;;27.30;20.30;;;;;;;3.88;100.00;99279.41;4993593;28;20473;-50
2023/03/08 10:35:36;;;;;;;27.33;20.20;;;;;;;5.04;100.00;99338.16;5011193;28;20440;-57
2023/03/08 10:38:03;;;;;;;27.10;19.98;;;;;;;5.97;100.00;99348.78;5011385;28;20120;-56
2023/03/08 10:40:28;;;;;;;24.80;17.95;;;;;;;6.51;100.00;99358.03;5009587;28;20125;-58
2023/03/08 10:42:59;;;;;;;24.85;17.55;;;;;;;6.16;100.00;99305.34;5008437;28;20125;-58
2023/03/08 10:45:27;;;;;;;19.25;14.93;;;;;;;5.28;100.00;99252.13;5009682;28;20060;-56
2023/03/08 10:48:02;;;;;;;18.60;14.90;;;;;;;5.61;100.00;99369.19;5009462;28;20026;-54
2023/03/08 10:50:34;;;;;;;17.50;14.23;;;;;;;5.44;100.00;99358.50;5026507;28;20036;-56
2023/03/08 10:53:17;;;;;;;15.98;12.93;;;;;;;5.02;100.00;99302.63;5010020;28;20133;-55
2023/03/08 10:55:43;;;;;;;16.95;13.18;;;;;;;5.28;100.00;99382.56;5010810;28;20047;-56
2023/03/08 10:58:42;;;;;;;17.35;14.02;;;;;;;4.95;100.00;99374.97;5006699;28;20033;-55
2023/03/08 11:01:30;;;;;;;18.92;13.85;;;;;;;5.00;100.00;99359.16;4991209;28;20042;-56
2023/03/08 11:04:11;;;;;;;20.98;15.05;;;;;;;4.92;100.00;99338.56;4991927;28;20049;-56
2023/03/08 11:06:37;;;;;;;19.38;14.20;;;;;;;4.63;100.00;99277.88;5010861;28;20034;-55
2023/03/08 11:09:04;;;;;;;18.63;13.70;;;;;;;5.11;100.00;99341.38;5025372;28;20037;-57
2023/03/08 11:11:39;;;;;;;18.67;14.02;;;;;;;4.74;100.00;99309.63;5005949;28;20049;-56
2023/03/08 11:14:07;;;;;;;19.42;14.35;;;;;;;4.44;100.00;99269.78;5002907;28;20201;-54
2023/03/08 11:17:10;;;;;;;19.13;13.32;;;;;;;4.79;100.00;99347.69;5006619;28;20048;-55
2023/03/08 11:19:45;;;;;;;17.85;13.48;;;;;;;4.65;100.00;99338.59;5010893;28;20037;-56